Time;durP1;ratioP1;P1;durP2;ratioP2;P2;SDS_P1;SDS_P2;PMS_P1;PMS_P2;Temp;Humidity;BMP_temperature;BMP_pressure;BME280_temperature;BME280_humidity;BME280_pressure;Samples;Min_cycle;Max_cycle;Signal;HPM_P1;HPM_P2
2022/07/17 00:01:03;;;;;;;6.63;2.43;;;14.50;99.90;;;;;;5076576;28;20058;-71
2022/07/17 00:03:29;;;;;;;6.47;2.73;;;14.40;99.90;;;;;;5094601;28;20365;-71
2022/07/17 00:05:54;;;;;;;5.50;2.33;;;14.50;99.90;;;;;;5093387;28;20066;-71
2022/07/17 00:08:20;;;;;;;9.00;2.93;;;14.50;99.90;;;;;;5094553;28;20087;-71
2022/07/17 00:10:46;;;;;;;6.70;2.17;;;14.50;99.90;;;;;;5094497;28;20079;-72
2022/07/17 00:13:12;;;;;;;7.67;2.20;;;14.40;99.90;;;;;;5093966;28;20044;-72
2022/07/17 00:15:37;;;;;;;7.53;2.93;;;14.40;99.90;;;;;;5093334;28;20054;-72
2022/07/17 00:18:03;;;;;;;14.07;2.70;;;14.40;99.90;;;;;;5093510;28;20048;-71
2022/07/17 00:20:29;;;;;;;8.87;2.30;;;14.40;99.90;;;;;;5092677;28;20463;-72
2022/07/17 00:22:55;;;;;;;7.63;2.50;;;14.30;99.90;;;;;;5093803;28;20044;-71
2022/07/17 00:25:22;;;;;;;9.20;2.33;;;14.30;99.90;;;;;;5093881;28;20294;-71
2022/07/17 00:27:48;;;;;;;6.27;2.47;;;14.30;99.90;;;;;;5093745;28;20044;-71
2022/07/17 00:30:14;;;;;;;7.80;2.30;;;14.20;99.90;;;;;;5094204;28;20282;-71
2022/07/17 00:32:40;;;;;;;12.50;2.40;;;14.20;99.90;;;;;;5092724;28;20047;-71
2022/07/17 00:35:07;;;;;;;5.70;1.80;;;14.20;99.90;;;;;;5093767;28;20339;-71
2022/07/17 00:37:42;;;;;;;7.70;2.27;;;14.30;99.90;;;;;;5094096;28;20314;-71
2022/07/17 00:40:10;;;;;;;4.47;2.03;;;14.20;99.90;;;;;;5094444;28;20613;-71
2022/07/17 00:42:39;;;;;;;6.53;2.30;;;14.20;99.90;;;;;;5092071;28;20047;-74
2022/07/17 00:45:05;;;;;;;8.40;1.87;;;14.10;99.90;;;;;;5093463;28;20290;-71
2022/07/17 00:47:31;;;;;;;6.57;2.07;;;14.10;99.90;;;;;;5126680;27;20281;-71
2022/07/17 00:49:57;;;;;;;7.00;2.40;;;14.10;99.90;;;;;;5093484;28;20339;-71
2022/07/17 00:52:22;;;;;;;6.60;2.17;;;14.10;99.90;;;;;;5093650;28;20079;-71
2022/07/17 00:54:49;;;;;;;4.77;2.27;;;14.10;99.90;;;;;;5093443;28;20040;-71
2022/07/17 00:57:15;;;;;;;8.07;2.50;;;14.10;99.90;;;;;;5093424;28;20052;-71
2022/07/17 00:59:42;;;;;;;7.07;2.30;;;14.10;99.90;;;;;;5093383;28;20351;-71
2022/07/17 01:02:12;;;;;;;8.20;2.53;;;14.00;99.90;;;;;;5093363;28;20277;-71
2022/07/17 01:04:38;;;;;;;7.50;2.40;;;14.00;99.90;;;;;;5092941;28;20309;-71
2022/07/17 01:07:05;;;;;;;6.23;2.30;;;14.00;99.90;;;;;;5093306;28;20277;-71
2022/07/17 01:09:32;;;;;;;5.90;2.40;;;13.90;99.90;;;;;;5093053;28;20282;-71
2022/07/17 01:11:58;;;;;;;8.17;2.70;;;13.80;99.90;;;;;;5092469;28;20286;-71
2022/07/17 01:14:25;;;;;;;6.10;2.47;;;13.90;99.90;;;;;;5093322;28;20318;-71
2022/07/17 01:16:52;;;;;;;8.07;2.33;;;13.80;99.90;;;;;;5093217;28;20040;-71
2022/07/17 01:19:19;;;;;;;7.13;2.20;;;13.80;99.90;;;;;;5093224;28;20331;-71
2022/07/17 01:21:47;;;;;;;5.03;2.07;;;13.80;99.90;;;;;;5093167;28;20357;-71
2022/07/17 01:24:13;;;;;;;6.47;2.30;;;13.80;99.90;;;;;;5092033;28;20302;-71
2022/07/17 01:26:47;;;;;;;6.93;2.60;;;13.80;99.90;;;;;;5093720;28;20595;-71
2022/07/17 01:29:14;;;;;;;5.73;2.10;;;13.80;99.90;;;;;;5094860;28;20768;-71
2022/07/17 01:31:40;;;;;;;5.57;2.00;;;13.80;99.90;;;;;;5097355;28;20327;-71
2022/07/17 01:34:08;;;;;;;5.67;2.63;;;13.80;99.90;;;;;;5096881;28;20276;-70
2022/07/17 01:36:35;;;;;;;8.03;2.63;;;13.80;99.90;;;;;;5096993;28;20611;-71
2022/07/17 01:39:01;;;;;;;7.63;2.43;;;13.70;99.90;;;;;;5097416;28;20286;-71
2022/07/17 01:41:27;;;;;;;8.23;2.50;;;13.80;99.90;;;;;;5096797;28;20332;-71
2022/07/17 01:43:53;;;;;;;6.17;2.40;;;13.70;99.90;;;;;;5096679;28;20358;-71
2022/07/17 01:46:18;;;;;;;5.40;2.67;;;13.70;99.90;;;;;;5096746;28;20047;-71
2022/07/17 01:48:44;;;;;;;5.33;2.33;;;13.70;99.90;;;;;;5095772;28;20131;-74
2022/07/17 01:51:10;;;;;;;5.33;2.27;;;13.60;99.90;;;;;;5096765;28;20052;-71
2022/07/17 01:53:36;;;;;;;7.53;2.57;;;13.60;99.90;;;;;;5097724;28;20040;-71
2022/07/17 01:56:02;;;;;;;6.73;2.70;;;13.60;99.90;;;;;;5096558;28;20036;-71
2022/07/17 01:58:28;;;;;;;5.23;2.70;;;13.50;99.90;;;;;;5095562;28;20048;-71
2022/07/17 02:00:53;;;;;;;5.57;2.60;;;13.60;99.90;;;;;;5096505;28;20278;-71
2022/07/17 02:03:20;;;;;;;5.57;3.00;;;13.60;99.90;;;;;;5096434;28;20536;-71
2022/07/17 02:05:46;;;;;;;8.33;2.97;;;13.50;99.90;;;;;;5096490;28;20156;-74
2022/07/17 02:08:12;;;;;;;7.53;2.80;;;13.50;99.90;;;;;;5095926;28;20670;-71
2022/07/17 02:10:38;;;;;;;5.20;2.20;;;13.50;99.90;;;;;;5095402;28;20040;-71
2022/07/17 02:13:03;;;;;;;7.87;2.37;;;13.50;99.90;;;;;;5096210;28;20048;-71
2022/07/17 02:15:29;;;;;;;7.50;2.53;;;13.40;99.90;;;;;;5094777;28;20040;-71
2022/07/17 02:17:55;;;;;;;6.77;2.77;;;13.40;99.90;;;;;;5096269;28;20048;-71
2022/07/17 02:20:22;;;;;;;7.80;2.70;;;13.40;99.90;;;;;;5096212;28;20059;-71
2022/07/17 02:22:48;;;;;;;8.83;3.00;;;13.40;99.90;;;;;;5096149;28;20310;-71
2022/07/17 02:25:14;;;;;;;6.63;3.00;;;13.40;99.90;;;;;;5096403;28;20356;-71
2022/07/17 02:27:41;;;;;;;7.33;3.20;;;13.40;99.90;;;;;;5095027;28;20047;-71
2022/07/17 02:30:10;;;;;;;8.17;4.30;;;13.40;99.90;;;;;;5095684;28;20309;-71
2022/07/17 02:32:36;;;;;;;10.40;5.00;;;13.30;99.90;;;;;;5095355;28;20624;-71
2022/07/17 02:35:02;;;;;;;8.87;5.23;;;13.30;99.90;;;;;;5094552;28;20389;-71
2022/07/17 02:37:28;;;;;;;7.80;5.53;;;13.30;99.90;;;;;;5095367;28;20135;-71
2022/07/17 02:39:54;;;;;;;7.97;5.90;;;13.30;99.90;;;;;;5095038;28;20317;-71
2022/07/17 02:42:21;;;;;;;8.73;6.87;;;13.30;99.90;;;;;;5094001;28;20059;-71
2022/07/17 02:44:47;;;;;;;9.53;6.73;;;13.30;99.90;;;;;;5078306;28;20044;-70
2022/07/17 02:47:34;;;;;;;9.20;6.40;;;13.30;99.90;;;;;;5094598;28;20318;-71
2022/07/17 02:50:03;;;;;;;9.17;6.27;;;13.30;99.90;;;;;;5095393;28;20282;-72
2022/07/17 02:52:29;;;;;;;8.80;6.07;;;13.20;99.90;;;;;;5095468;28;20290;-71
2022/07/17 02:54:55;;;;;;;10.70;6.40;;;13.30;99.90;;;;;;5094825;28;20286;-71
2022/07/17 02:57:20;;;;;;;9.43;6.37;;;13.20;99.90;;;;;;5096183;28;20048;-71
2022/07/17 02:59:46;;;;;;;9.80;6.00;;;13.10;99.90;;;;;;5095642;28;20066;-71
2022/07/17 03:02:13;;;;;;;10.77;6.70;;;13.20;99.90;;;;;;5095348;28;20061;-71
2022/07/17 03:04:39;;;;;;;10.13;6.30;;;13.10;99.90;;;;;;5094783;28;20301;-71
2022/07/17 03:07:04;;;;;;;8.40;5.87;;;13.10;99.90;;;;;;5095690;28;20624;-71
2022/07/17 03:09:30;;;;;;;8.10;5.63;;;13.10;99.90;;;;;;5094226;28;20067;-71
2022/07/17 03:11:56;;;;;;;11.37;5.77;;;13.10;99.90;;;;;;5095320;28;20044;-72
2022/07/17 03:14:21;;;;;;;11.33;5.73;;;13.10;99.90;;;;;;5095227;28;20083;-71
2022/07/17 03:16:47;;;;;;;8.07;5.60;;;13.10;99.90;;;;;;5095061;28;20051;-71
2022/07/17 03:19:13;;;;;;;8.10;5.43;;;13.00;99.90;;;;;;5095235;28;20044;-71
2022/07/17 03:21:39;;;;;;;10.27;5.70;;;13.00;99.90;;;;;;5094618;28;20523;-71
2022/07/17 03:24:05;;;;;;;8.03;4.57;;;13.00;99.90;;;;;;5094003;28;20044;-71
2022/07/17 03:26:30;;;;;;;6.87;5.33;;;13.00;99.90;;;;;;5094836;28;20075;-71
2022/07/17 03:28:56;;;;;;;9.10;5.30;;;13.00;99.90;;;;;;5094473;28;20282;-73
2022/07/17 03:31:22;;;;;;;8.37;4.80;;;13.00;99.90;;;;;;5094762;28;20053;-71
2022/07/17 03:33:47;;;;;;;8.90;4.90;;;13.00;99.90;;;;;;5094777;28;20042;-72
2022/07/17 03:36:14;;;;;;;6.80;4.30;;;13.10;99.90;;;;;;5094593;28;20051;-71
2022/07/17 03:38:40;;;;;;;7.50;4.97;;;13.00;99.90;;;;;;5094478;28;20059;-71
2022/07/17 03:41:05;;;;;;;9.50;4.50;;;13.10;99.90;;;;;;5094925;28;20274;-71
2022/07/17 03:43:31;;;;;;;7.27;4.23;;;13.10;99.90;;;;;;5093330;28;20052;-71
2022/07/17 03:45:58;;;;;;;8.53;4.40;;;13.10;99.90;;;;;;5094990;28;20044;-71
2022/07/17 03:48:24;;;;;;;8.50;4.50;;;13.20;99.90;;;;;;5094461;28;20339;-72
2022/07/17 03:50:49;;;;;;;7.33;3.87;;;13.20;99.90;;;;;;5094124;28;20101;-71
2022/07/17 03:53:15;;;;;;;9.87;3.80;;;13.20;99.90;;;;;;5094396;28;20052;-71
2022/07/17 03:55:40;;;;;;;8.60;4.50;;;13.20;99.90;;;;;;5094389;28;20479;-71
2022/07/17 03:58:06;;;;;;;8.00;4.50;;;13.20;99.90;;;;;;5093107;28;20536;-71
2022/07/17 04:00:32;;;;;;;6.63;4.00;;;13.20;99.90;;;;;;5094264;28;20050;-71
2022/07/17 04:02:58;;;;;;;7.77;3.93;;;13.20;99.90;;;;;;5094148;28;20412;-71
2022/07/17 04:05:23;;;;;;;8.13;4.03;;;13.30;99.90;;;;;;5095164;28;20123;-72
2022/07/17 04:07:49;;;;;;;10.97;4.40;;;13.30;99.90;;;;;;5094631;28;20048;-72
2022/07/17 04:10:15;;;;;;;8.13;4.10;;;13.40;99.90;;;;;;5093799;28;20044;-72
2022/07/17 04:12:41;;;;;;;6.53;4.37;;;13.40;99.90;;;;;;5076964;28;20050;-72
2022/07/17 04:15:08;;;;;;;6.73;3.80;;;13.40;99.90;;;;;;5093673;28;20043;-72
2022/07/17 04:17:34;;;;;;;6.53;4.17;;;13.40;99.90;;;;;;5093991;28;20286;-71
2022/07/17 04:20:00;;;;;;;9.00;3.87;;;13.40;99.90;;;;;;5092572;28;20773;-71
2022/07/17 04:22:26;;;;;;;7.53;3.57;;;13.50;99.90;;;;;;5094344;28;20293;-71
2022/07/17 04:24:52;;;;;;;8.37;3.90;;;13.50;99.90;;;;;;5093749;28;20032;-71
2022/07/17 04:27:18;;;;;;;9.20;3.50;;;13.40;99.90;;;;;;5094266;28;20044;-71
2022/07/17 04:29:44;;;;;;;7.67;3.73;;;13.50;99.90;;;;;;5093711;28;20374;-71
2022/07/17 04:32:10;;;;;;;8.93;3.27;;;13.50;99.90;;;;;;5093722;28;20361;-71
2022/07/17 04:34:36;;;;;;;6.63;3.50;;;13.50;99.90;;;;;;5093479;28;20106;-71
2022/07/17 04:37:03;;;;;;;8.13;3.23;;;13.60;99.90;;;;;;5092497;28;20131;-71
2022/07/17 04:39:29;;;;;;;8.97;3.30;;;13.60;99.90;;;;;;5093692;28;20281;-71
2022/07/17 04:41:55;;;;;;;8.13;3.07;;;13.70;99.90;;;;;;5093276;28;20290;-71
2022/07/17 04:44:21;;;;;;;9.90;3.50;;;13.70;99.90;;;;;;5093487;28;20325;-71
2022/07/17 04:46:46;;;;;;;7.47;3.27;;;13.70;99.90;;;;;;5092300;28;20044;-71
2022/07/17 04:49:12;;;;;;;9.07;3.33;;;13.70;99.90;;;;;;5093648;28;20055;-72
2022/07/17 04:51:38;;;;;;;8.53;3.73;;;13.80;99.90;;;;;;5093639;28;20055;-71
2022/07/17 04:54:04;;;;;;;7.73;2.93;;;13.80;99.90;;;;;;5094075;28;20297;-71
2022/07/17 04:56:30;;;;;;;8.33;3.07;;;13.80;99.90;;;;;;5093485;28;20197;-71
2022/07/17 04:58:55;;;;;;;5.13;2.70;;;13.80;99.90;;;;;;5093697;28;20044;-71
2022/07/17 05:01:21;;;;;;;6.60;2.70;;;13.90;99.90;;;;;;5093435;28;20044;-72
2022/07/17 05:03:46;;;;;;;7.73;2.77;;;13.90;99.90;;;;;;5096095;28;20044;-71
2022/07/17 05:06:12;;;;;;;6.00;2.60;;;14.00;99.90;;;;;;5097570;28;20395;-72
2022/07/17 05:08:38;;;;;;;6.67;2.50;;;14.00;99.90;;;;;;5097567;28;20376;-72
2022/07/17 05:11:04;;;;;;;8.20;3.00;;;14.00;99.90;;;;;;5096329;28;20503;-71
2022/07/17 05:13:30;;;;;;;8.03;2.47;;;14.00;99.90;;;;;;5096465;28;20044;-71
2022/07/17 05:15:55;;;;;;;6.97;2.60;;;14.00;99.90;;;;;;5097379;28;20044;-72
2022/07/17 05:18:21;;;;;;;10.37;2.57;;;14.10;99.90;;;;;;5096879;28;20292;-71
2022/07/17 05:20:47;;;;;;;8.67;2.50;;;14.10;99.90;;;;;;5095759;28;20051;-71
2022/07/17 05:23:12;;;;;;;8.40;2.70;;;14.20;99.90;;;;;;5097239;28;20043;-73
2022/07/17 05:25:38;;;;;;;7.37;1.90;;;14.20;99.90;;;;;;5097147;28;20121;-71
2022/07/17 05:28:04;;;;;;;7.53;2.37;;;14.20;99.90;;;;;;5097129;28;20140;-71
2022/07/17 05:30:30;;;;;;;6.03;2.37;;;14.30;99.90;;;;;;5096044;28;20051;-71
2022/07/17 05:32:55;;;;;;;7.47;2.80;;;14.30;99.90;;;;;;5097094;28;20047;-72
2022/07/17 05:35:21;;;;;;;10.87;2.70;;;14.30;99.90;;;;;;5095850;28;20043;-72
2022/07/17 05:37:47;;;;;;;6.70;2.30;;;14.40;99.90;;;;;;5096991;28;20044;-72
2022/07/17 05:40:13;;;;;;;9.10;2.33;;;14.50;99.90;;;;;;5096953;28;20065;-71
2022/07/17 05:42:39;;;;;;;7.77;2.23;;;14.60;99.90;;;;;;5095194;28;20525;-71
2022/07/17 05:45:05;;;;;;;10.20;2.50;;;14.70;99.90;;;;;;5096865;28;20131;-71
2022/07/17 05:47:31;;;;;;;8.80;2.57;;;14.80;99.90;;;;;;5096505;28;20480;-71
2022/07/17 05:49:57;;;;;;;6.43;2.10;;;15.00;99.90;;;;;;5096690;28;20285;-71
2022/07/17 05:52:23;;;;;;;8.60;2.23;;;15.10;99.90;;;;;;5096767;28;20083;-71
2022/07/17 05:54:48;;;;;;;5.80;1.80;;;15.40;99.90;;;;;;5096611;28;20375;-71
2022/07/17 05:57:14;;;;;;;6.97;2.40;;;15.90;99.90;;;;;;5097151;28;20044;-71
2022/07/17 05:59:40;;;;;;;6.10;2.53;;;16.90;99.90;;;;;;5096641;28;20051;-71
2022/07/17 06:02:06;;;;;;;5.90;1.87;;;17.50;99.90;;;;;;5096526;28;20047;-71
2022/07/17 06:04:32;;;;;;;7.77;2.03;;;18.20;99.90;;;;;;5096985;28;20489;-72
2022/07/17 06:06:57;;;;;;;7.37;2.17;;;18.90;99.90;;;;;;5095189;28;20314;-72
2022/07/17 06:09:23;;;;;;;7.13;2.10;;;19.90;99.90;;;;;;5094905;28;20054;-72
2022/07/17 06:11:49;;;;;;;7.33;2.00;;;21.10;99.90;;;;;;5096379;28;20044;-72
2022/07/17 06:14:14;;;;;;;7.23;1.80;;;22.00;99.90;;;;;;5095391;28;20520;-72
2022/07/17 06:16:40;;;;;;;8.13;1.93;;;23.10;96.30;;;;;;5096231;28;20040;-72
2022/07/17 06:19:06;;;;;;;5.87;1.87;;;;;;;;;;5096219;28;20414;-72
2022/07/17 06:21:32;;;;;;;9.77;2.03;;;24.10;60.80;;;;;;5096699;28;20046;-72
2022/07/17 06:23:57;;;;;;;7.97;1.90;;;24.30;59.00;;;;;;5095052;28;20130;-72
2022/07/17 06:26:23;;;;;;;5.77;1.57;;;24.50;70.10;;;;;;5096561;28;20048;-72
2022/07/17 06:28:49;;;;;;;7.20;2.00;;;24.50;66.40;;;;;;5096154;28;20048;-72
2022/07/17 06:31:15;;;;;;;6.60;2.13;;;24.10;58.00;;;;;;5096023;28;20040;-72
2022/07/17 06:33:41;;;;;;;7.00;1.70;;;;;;;;;;5095893;28;20062;-72
2022/07/17 06:36:07;;;;;;;3.97;1.30;;;;;;;;;;5096016;28;20055;-72
2022/07/17 06:38:34;;;;;;;6.33;1.90;;;;;;;;;;5096421;28;20130;-73
2022/07/17 06:41:01;;;;;;;5.83;1.73;;;;;;;;;;5095824;28;20066;-72
2022/07/17 06:43:27;;;;;;;7.40;1.60;;;;;;;;;;5095574;28;20060;-73
2022/07/17 06:45:54;;;;;;;5.63;1.50;;;;;;;;;;5095689;28;20059;-72
2022/07/17 06:48:23;;;;;;;6.53;1.80;;;25.50;50.00;;;;;;5095703;28;20127;-72
2022/07/17 06:50:48;;;;;;;8.93;2.27;;;24.60;53.80;;;;;;5095428;28;20044;-72
2022/07/17 06:53:14;;;;;;;7.00;1.90;;;23.90;55.40;;;;;;5096074;28;20488;-72
2022/07/17 06:55:40;;;;;;;7.50;1.80;;;23.10;57.20;;;;;;5095504;28;20048;-72
2022/07/17 06:58:06;;;;;;;6.63;1.60;;;22.50;58.70;;;;;;5095445;28;20488;-72
2022/07/17 07:00:32;;;;;;;6.20;1.83;;;22.00;60.10;;;;;;5095396;28;20048;-73
2022/07/17 07:02:58;;;;;;;5.20;1.40;;;21.50;62.60;;;;;;5095378;28;20153;-73
2022/07/17 07:05:24;;;;;;;6.33;1.70;;;21.10;65.40;;;;;;5095090;28;20131;-73
2022/07/17 07:07:50;;;;;;;7.83;1.90;;;20.90;67.20;;;;;;5095257;28;20040;-73
2022/07/17 07:10:15;;;;;;;5.47;1.60;;;20.60;69.90;;;;;;5094932;28;20050;-72
2022/07/17 07:12:41;;;;;;;9.13;1.80;;;20.50;70.60;;;;;;5095093;28;20048;-72
2022/07/17 07:15:08;;;;;;;6.83;1.60;;;20.30;72.80;;;;;;5095110;28;20076;-72
2022/07/17 07:17:35;;;;;;;6.37;1.73;;;20.20;74.60;;;;;;5095007;28;20487;-72
2022/07/17 07:20:02;;;;;;;7.90;1.60;;;20.20;76.10;;;;;;5094035;28;20091;-71
2022/07/17 07:22:28;;;;;;;8.47;1.87;;;20.10;78.30;;;;;;5094942;28;20048;-73
2022/07/17 07:24:54;;;;;;;6.23;1.67;;;20.10;77.80;;;;;;5093607;28;20059;-73
2022/07/17 07:27:19;;;;;;;7.60;1.80;;;20.20;78.90;;;;;;5094573;28;20044;-72
2022/07/17 07:29:45;;;;;;;6.73;1.80;;;20.30;77.90;;;;;;5095318;28;20059;-72
2022/07/17 07:32:11;;;;;;;8.70;1.70;;;20.40;77.20;;;;;;5094649;28;20047;-72
2022/07/17 07:34:37;;;;;;;10.03;1.93;;;20.80;76.10;;;;;;5093658;28;20047;-72
2022/07/17 07:37:02;;;;;;;7.57;1.83;;;21.60;74.20;;;;;;5094673;28;20488;-72
2022/07/17 07:39:28;;;;;;;6.97;1.60;;;;;;;;;;5095395;28;20083;-73
2022/07/17 07:41:55;;;;;;;7.80;1.83;;;24.00;66.30;;;;;;5093299;28;20484;-73
2022/07/17 07:44:21;;;;;;;6.10;1.70;;;26.70;56.10;;;;;;5095037;28;20071;-73
2022/07/17 07:46:47;;;;;;;6.70;1.67;;;;;;;;;;5094586;28;20475;-73
2022/07/17 07:49:12;;;;;;;5.53;1.43;;;27.90;52.60;;;;;;5093625;28;20048;-73
2022/07/17 07:51:38;;;;;;;5.43;1.40;;;;;;;;;;5094465;28;20616;-73
2022/07/17 07:54:04;;;;;;;5.47;1.60;;;29.60;43.20;;;;;;5093202;28;20048;-74
2022/07/17 07:56:30;;;;;;;8.23;1.97;;;29.80;46.00;;;;;;5095127;28;20087;-72
2022/07/17 07:58:56;;;;;;;7.07;1.70;;;30.00;44.80;;;;;;5094558;28;20383;-71
2022/07/17 08:01:22;;;;;;;6.40;1.80;;;;;;;;;;5094333;28;20051;-71
2022/07/17 08:03:48;;;;;;;5.30;1.67;;;;;;;;;;5094153;28;20043;-72
2022/07/17 08:06:14;;;;;;;6.53;1.98;;;;;;;;;;5094232;28;20040;-71
2022/07/17 08:08:40;;;;;;;5.78;1.75;;;;;;;;;;5094092;28;20479;-71
2022/07/17 08:11:06;;;;;;;5.45;1.77;;;30.90;41.00;;;;;;5094159;28;20047;-71
2022/07/17 08:13:33;;;;;;;7.88;2.13;;;;;;;;;;5094038;28;20058;-73
2022/07/17 08:15:59;;;;;;;5.22;1.85;;;31.80;40.40;;;;;;5094348;28;20067;-73
2022/07/17 08:18:25;;;;;;;7.53;1.95;;;31.80;40.50;;;;;;5094784;28;20460;-73
2022/07/17 08:20:52;;;;;;;4.45;1.83;;;31.60;40.40;;;;;;5093900;28;20048;-73
2022/07/17 08:23:18;;;;;;;7.65;2.17;;;;;;;;;;5093969;28;20044;-73
2022/07/17 08:25:44;;;;;;;4.28;2.00;;;32.20;39.00;;;;;;5094004;28;20094;-73
2022/07/17 08:28:10;;;;;;;6.57;1.77;;;32.10;39.30;;;;;;5094410;28;20048;-73
2022/07/17 08:30:36;;;;;;;5.72;1.60;;;32.20;39.80;;;;;;5094318;28;20090;-73
2022/07/17 08:33:04;;;;;;;5.28;1.85;;;32.40;39.10;;;;;;5093647;28;20368;-73
2022/07/17 08:35:29;;;;;;;7.50;1.90;;;32.00;38.90;;;;;;5093788;28;20032;-73
2022/07/17 08:37:55;;;;;;;5.20;1.80;;;32.30;38.50;;;;;;5093214;28;20051;-73
2022/07/17 08:40:23;;;;;;;5.63;1.67;;;;;;;;;;5093743;28;20048;-73
2022/07/17 08:42:49;;;;;;;7.20;1.90;;;;;;;;;;5093791;28;20059;-73
2022/07/17 08:45:15;;;;;;;6.72;1.95;;;31.10;38.50;;;;;;5093819;28;20062;-84
2022/07/17 08:47:41;;;;;;;4.97;1.65;;;31.10;39.10;;;;;;5092562;28;20464;-73
2022/07/17 08:50:09;;;;;;;7.82;1.80;;;30.40;39.90;;;;;;5093618;28;20048;-73
2022/07/17 08:52:40;;;;;;;6.57;1.90;;;29.90;59.80;;;;;;5093521;28;20484;-73
2022/07/17 08:55:13;;;;;;;5.10;1.70;;;29.00;41.20;;;;;;5093169;28;20506;-74
2022/07/17 08:57:44;;;;;;;7.82;2.75;;;28.70;42.30;;;;;;5093472;28;20051;-77
2022/07/17 09:00:12;;;;;;;6.03;1.60;;;28.20;42.30;;;;;;5092236;28;20126;-78
2022/07/17 09:02:39;;;;;;;5.75;1.70;;;;;;;;;;5093736;28;20399;-76
2022/07/17 09:05:06;;;;;;;5.47;2.10;;;27.20;44.50;;;;;;5093242;28;20047;-79
2022/07/17 09:07:32;;;;;;;6.75;2.15;;;;;;;;;;5092962;28;20043;-77
2022/07/17 09:09:58;;;;;;;5.32;1.90;;;26.50;44.40;;;;;;5093322;28;20045;-77
2022/07/17 09:12:28;;;;;;;6.45;2.03;;;26.40;44.80;;;;;;5093558;28;20048;-77
2022/07/17 09:14:54;;;;;;;9.02;1.83;;;26.10;45.70;;;;;;5093764;28;20048;-77
2022/07/17 09:17:20;;;;;;;5.60;1.85;;;26.00;46.80;;;;;;5093571;28;20043;-78
2022/07/17 09:19:46;;;;;;;6.18;1.58;;;;;;;;;;5092281;28;20357;-77
2022/07/17 09:22:18;;;;;;;4.65;1.60;;;25.60;46.20;;;;;;5093203;28;20055;-78
2022/07/17 09:24:52;;;;;;;5.85;1.83;;;25.70;47.20;;;;;;5093091;28;20131;-78
2022/07/17 09:27:24;;;;;;;;;;;25.60;48.10;;;;;;5093666;28;20047;-75
2022/07/17 09:29:52;;;;;;;5.80;1.70;;;25.50;48.40;;;;;;5093896;28;19920;-78
2022/07/17 09:32:19;;;;;;;5.73;1.87;;;25.40;48.10;;;;;;5093113;28;20040;-79
2022/07/17 09:34:46;;;;;;;5.63;1.60;;;25.30;48.40;;;;;;5093110;28;20482;-79
2022/07/17 09:37:12;;;;;;;5.67;1.80;;;25.00;48.60;;;;;;5092876;28;20432;-78
2022/07/17 09:39:39;;;;;;;5.67;1.87;;;25.00;48.90;;;;;;5093020;28;20105;-80
2022/07/17 09:42:05;;;;;;;7.10;2.10;;;24.90;49.40;;;;;;5092662;28;20066;-73
2022/07/17 09:44:31;;;;;;;5.63;1.60;;;24.90;49.70;;;;;;5092886;28;20059;-75
2022/07/17 09:46:57;;;;;;;4.87;1.57;;;24.80;50.00;;;;;;5092999;28;20044;-74
2022/07/17 09:49:28;;;;;;;5.57;1.70;;;24.80;50.10;;;;;;5094774;28;20081;-78
2022/07/17 09:51:54;;;;;;;4.17;1.67;;;24.60;50.70;;;;;;5096709;28;20056;-75
2022/07/17 09:54:24;;;;;;;3.73;1.57;;;24.50;50.70;;;;;;5096673;28;20075;-79
2022/07/17 09:56:51;;;;;;;5.40;1.80;;;24.40;51.20;;;;;;5096550;28;20054;-79
2022/07/17 09:59:18;;;;;;;5.43;2.10;;;24.20;51.70;;;;;;5096605;28;20055;-80
2022/07/17 10:01:45;;;;;;;7.40;2.73;;;24.10;51.60;;;;;;5096971;28;20093;-75
2022/07/17 10:04:11;;;;;;;4.37;1.83;;;24.10;51.70;;;;;;5096362;28;20043;-84
2022/07/17 10:06:37;;;;;;;4.80;1.53;;;24.00;51.30;;;;;;5095492;28;20087;-80
2022/07/17 10:09:05;;;;;;;9.10;1.97;;;23.90;51.70;;;;;;5096410;28;20059;-72
2022/07/17 10:11:33;;;;;;;5.33;1.53;;;23.70;52.40;;;;;;5096371;28;20063;-72
2022/07/17 10:14:10;;;;;;;5.50;1.77;;;23.70;53.30;;;;;;5096216;28;20048;-72
2022/07/17 10:16:38;;;;;;;4.93;1.80;;;23.70;53.50;;;;;;5096301;28;20044;-72
2022/07/17 10:19:24;;;;;;;5.53;1.80;;;23.70;54.10;;;;;;5095805;28;20526;-72
2022/07/17 10:21:55;;;;;;;4.90;1.40;;;23.70;54.30;;;;;;5097199;28;20040;-72
2022/07/17 10:24:21;;;;;;;6.67;1.80;;;23.70;55.00;;;;;;5095721;28;20549;-72
2022/07/17 10:26:49;;;;;;;6.10;1.90;;;23.70;55.00;;;;;;5096784;28;20048;-72
2022/07/17 10:29:37;;;;;;;4.73;1.70;;;23.70;55.00;;;;;;5095946;28;20063;-72
2022/07/17 10:32:17;;;;;;;3.47;1.57;;;23.60;56.10;;;;;;5096506;28;20127;-72
2022/07/17 10:34:52;;;;;;;5.27;1.83;;;23.60;56.60;;;;;;5096642;28;20041;-73
2022/07/17 10:37:35;;;;;;;6.03;1.70;;;23.60;56.40;;;;;;5095868;28;20095;-72
2022/07/17 10:40:09;;;;;;;5.57;1.70;;;23.60;56.90;;;;;;5095771;28;20039;-82
2022/07/17 10:43:01;;;;;;;6.77;1.70;;;23.60;56.60;;;;;;5094773;28;20056;-72
2022/07/17 10:45:44;;;;;;;5.93;1.60;;;23.60;57.10;;;;;;5096375;28;20101;-72
2022/07/17 10:48:12;;;;;;;5.03;1.90;;;23.60;57.10;;;;;;5095667;28;20055;-72
2022/07/17 10:50:42;;;;;;;4.83;1.60;;;23.60;57.20;;;;;;5094614;28;20040;-72
2022/07/17 10:53:28;;;;;;;4.90;1.60;;;23.60;57.20;;;;;;5094523;28;20135;-72
2022/07/17 10:56:04;;;;;;;5.47;2.07;;;23.50;58.20;;;;;;5095564;28;20056;-72
2022/07/17 10:58:37;;;;;;;5.23;1.80;;;23.60;58.00;;;;;;5096067;28;20391;-72
2022/07/17 11:01:15;;;;;;;5.10;1.80;;;23.60;57.80;;;;;;5094954;28;20127;-73
2022/07/17 11:03:47;;;;;;;7.23;1.87;;;23.50;57.90;;;;;;5095393;28;20122;-68
2022/07/17 11:06:20;;;;;;;5.43;1.80;;;23.40;58.30;;;;;;5095578;28;20055;-69
2022/07/17 11:09:13;;;;;;;5.60;1.77;;;23.40;58.60;;;;;;5095275;28;20040;-70
2022/07/17 11:11:46;;;;;;;6.60;2.40;;;23.40;59.10;;;;;;5092215;28;20051;-76
2022/07/17 11:14:15;;;;;;;4.83;1.87;;;23.30;59.20;;;;;;5095044;28;20048;-76
2022/07/17 11:16:50;;;;;;;4.43;2.30;;;23.30;59.10;;;;;;5095046;28;20047;-78
2022/07/17 11:19:26;;;;;;;4.97;2.00;;;23.30;59.30;;;;;;5095605;28;20118;-78
2022/07/17 11:21:54;;;;;;;5.83;1.90;;;23.30;58.70;;;;;;5094314;28;20040;-79
2022/07/17 11:24:20;;;;;;;7.07;2.20;;;23.40;58.50;;;;;;5095696;28;20076;-78
2022/07/17 11:26:49;;;;;;;5.07;2.03;;;23.40;58.70;;;;;;5094417;28;20484;-68
2022/07/17 11:29:14;;;;;;;5.03;1.93;;;23.40;58.40;;;;;;5094831;28;20044;-68
2022/07/17 11:31:41;;;;;;;6.37;2.00;;;23.30;58.40;;;;;;5095711;28;20379;-68
2022/07/17 11:34:11;;;;;;;5.53;1.70;;;23.20;58.60;;;;;;5094761;28;20040;-67
2022/07/17 11:36:43;;;;;;;5.43;2.07;;;23.20;58.90;;;;;;5094611;28;20515;-68
2022/07/17 11:39:13;;;;;;;6.80;2.20;;;23.20;59.00;;;;;;5095228;28;20181;-70
2022/07/17 11:41:52;;;;;;;6.23;1.90;;;23.20;59.00;;;;;;5094548;28;20040;-73
2022/07/17 11:44:20;;;;;;;3.63;1.90;;;23.20;58.40;;;;;;5093825;28;20052;-74
2022/07/17 11:46:48;;;;;;;6.47;2.40;;;23.20;58.80;;;;;;5095263;28;20044;-71
2022/07/17 11:49:24;;;;;;;4.97;2.00;;;23.20;58.90;;;;;;5093891;28;20420;-69
2022/07/17 11:51:49;;;;;;;4.00;1.93;;;23.30;59.10;;;;;;5094370;28;20044;-68
2022/07/17 11:54:16;;;;;;;7.03;2.47;;;23.30;59.10;;;;;;5094615;28;20040;-68
2022/07/17 11:56:51;;;;;;;5.20;2.27;;;23.30;59.20;;;;;;5094387;28;20127;-69
2022/07/17 11:59:27;;;;;;;5.43;2.30;;;23.30;58.80;;;;;;5094152;28;20401;-68
2022/07/17 12:01:53;;;;;;;6.53;2.40;;;23.40;59.20;;;;;;5094354;28;20083;-68
2022/07/17 12:04:20;;;;;;;4.17;2.33;;;23.40;59.00;;;;;;5094683;28;20133;-68
2022/07/17 12:06:57;;;;;;;6.23;2.90;;;23.40;58.30;;;;;;5094693;28;20052;-68
2022/07/17 12:09:27;;;;;;;4.43;2.40;;;23.40;57.80;;;;;;5094188;28;20117;-68
2022/07/17 12:11:52;;;;;;;6.63;2.97;;;23.50;57.70;;;;;;5093866;28;20056;-68
2022/07/17 12:14:18;;;;;;;6.60;2.70;;;23.40;57.40;;;;;;5092780;28;20419;-68
2022/07/17 12:16:44;;;;;;;5.53;2.47;;;23.40;57.20;;;;;;5094047;28;20048;-68
2022/07/17 12:19:18;;;;;;;4.37;2.53;;;23.40;57.40;;;;;;5094753;28;20050;-68
2022/07/17 12:22:01;;;;;;;4.57;2.50;;;23.50;57.80;;;;;;5094590;28;20052;-68
2022/07/17 12:24:27;;;;;;;6.83;2.60;;;23.40;57.50;;;;;;5093621;28;20341;-68
2022/07/17 12:26:56;;;;;;;5.73;2.87;;;23.30;57.40;;;;;;5093875;28;20389;-68
2022/07/17 12:29:21;;;;;;;5.53;2.10;;;23.10;57.70;;;;;;5093782;28;20086;-69
2022/07/17 12:31:47;;;;;;;6.33;2.73;;;23.10;58.40;;;;;;5094570;28;20525;-70
2022/07/17 12:34:13;;;;;;;6.80;2.60;;;23.10;58.20;;;;;;5093768;28;20431;-70
2022/07/17 12:36:39;;;;;;;8.43;2.83;;;23.10;58.50;;;;;;5094269;28;20044;-69
2022/07/17 12:39:05;;;;;;;5.50;2.70;;;23.10;59.10;;;;;;5093640;28;20399;-70
2022/07/17 12:41:31;;;;;;;5.33;2.50;;;23.20;59.20;;;;;;5092573;28;20040;-70
2022/07/17 12:43:57;;;;;;;6.57;2.40;;;23.20;59.50;;;;;;5092126;28;20499;-70
2022/07/17 12:46:23;;;;;;;7.10;2.63;;;23.30;59.70;;;;;;5094002;28;20127;-70
2022/07/17 12:48:48;;;;;;;5.60;3.17;;;23.30;59.70;;;;;;5093071;28;20040;-70
2022/07/17 12:51:14;;;;;;;4.80;2.80;;;23.30;58.80;;;;;;5093507;28;20449;-70
2022/07/17 12:53:42;;;;;;;6.83;2.87;;;23.30;58.60;;;;;;5093519;28;20036;-70